createdAt,value
2023-03-27T00:01:11.901Z,101757.00
2023-03-27T00:03:38.706Z,101748.00
2023-03-27T00:06:09.354Z,101755.00
2023-03-27T00:08:38.989Z,101754.00
2023-03-27T00:11:08.216Z,101769.00
2023-03-27T00:13:36.564Z,101773.00
2023-03-27T00:16:16.296Z,101779.00
2023-03-27T00:18:42.911Z,101779.00
2023-03-27T00:21:09.538Z,101780.00
2023-03-27T00:23:36.440Z,101780.00
2023-03-27T00:26:03.072Z,101786.00
2023-03-27T00:28:30.326Z,101783.00
2023-03-27T00:30:58.410Z,101791.00
2023-03-27T00:33:28.047Z,101794.00
2023-03-27T00:35:54.944Z,101787.00
2023-03-27T00:38:21.601Z,101792.00
2023-03-27T00:40:49.340Z,101796.00
2023-03-27T00:43:35.358Z,101803.00
2023-03-27T00:46:27.975Z,101800.00
2023-03-27T00:48:56.221Z,101810.00
2023-03-27T00:51:25.287Z,101813.00
2023-03-27T00:53:53.024Z,101814.00
2023-03-27T00:56:20.111Z,101813.00
2023-03-27T00:58:50.990Z,101805.00
2023-03-27T01:01:20.097Z,101817.00
2023-03-27T01:03:47.862Z,101816.00
2023-03-27T01:06:17.050Z,101825.00
2023-03-27T01:08:46.757Z,101827.00
2023-03-27T01:11:28.250Z,101841.00
2023-03-27T01:14:13.944Z,101840.00
2023-03-27T01:16:52.758Z,101854.00
2023-03-27T01:19:38.364Z,101854.00
2023-03-27T01:22:37.755Z,101851.00
2023-03-27T01:25:26.272Z,101847.00
2023-03-27T01:28:02.833Z,101848.00
2023-03-27T01:30:40.070Z,101846.00
2023-03-27T01:33:32.714Z,101852.00
2023-03-27T01:36:24.869Z,101852.00
2023-03-27T01:39:13.482Z,101862.00
2023-03-27T01:41:43.129Z,101870.00
2023-03-27T01:44:26.916Z,101864.00
2023-03-27T01:47:27.466Z,101865.00
2023-03-27T01:50:19.886Z,101871.00
2023-03-27T01:53:28.616Z,101861.00
2023-03-27T01:56:05.968Z,101864.00
2023-03-27T01:58:38.101Z,101873.00
2023-03-27T02:01:06.280Z,101885.00
2023-03-27T02:03:39.792Z,101890.00
2023-03-27T02:06:30.196Z,101883.00
2023-03-27T02:09:14.654Z,101894.00
2023-03-27T02:12:07.577Z,101898.00
2023-03-27T02:14:42.061Z,101907.00
2023-03-27T02:17:13.827Z,101911.00
2023-03-27T02:19:53.086Z,101907.00
2023-03-27T02:22:20.258Z,101911.00
2023-03-27T02:25:21.392Z,101912.00
2023-03-27T02:27:50.152Z,101909.00
2023-03-27T02:31:06.066Z,101909.00
2023-03-27T02:33:57.037Z,101920.00
2023-03-27T02:37:03.947Z,101919.00
2023-03-27T02:39:49.029Z,101919.00
2023-03-27T02:42:21.297Z,101918.00
2023-03-27T02:44:55.361Z,101922.00
2023-03-27T02:47:32.340Z,101931.00
2023-03-27T02:50:07.439Z,101917.00
2023-03-27T02:52:38.802Z,101924.00
2023-03-27T02:55:10.763Z,101931.00
2023-03-27T02:57:41.952Z,101952.00
2023-03-27T03:00:25.445Z,101945.00
2023-03-27T03:03:00.564Z,101952.00
2023-03-27T03:05:27.643Z,101959.00
2023-03-27T03:07:54.449Z,101953.00
2023-03-27T03:10:21.550Z,101947.00
2023-03-27T03:12:48.114Z,101947.00
2023-03-27T03:15:14.735Z,101962.00
2023-03-27T03:17:41.944Z,101957.00
2023-03-27T03:20:09.912Z,101952.00
2023-03-27T03:22:39.978Z,101965.00
2023-03-27T03:25:07.811Z,101972.00
2023-03-27T03:27:34.559Z,101971.00
2023-03-27T03:30:01.310Z,101969.00
2023-03-27T03:32:28.142Z,101975.00
2023-03-27T03:34:57.085Z,101978.00
2023-03-27T03:37:28.585Z,101977.00
2023-03-27T03:39:55.979Z,101979.00
2023-03-27T03:42:23.914Z,101986.00
2023-03-27T03:44:51.037Z,101990.00
2023-03-27T03:47:17.988Z,102001.00
2023-03-27T03:49:44.599Z,102008.00
2023-03-27T03:52:14.414Z,102019.00
2023-03-27T03:54:41.016Z,102013.00
2023-03-27T03:57:08.869Z,102012.00
2023-03-27T03:59:35.863Z,102010.00
2023-03-27T04:02:03.149Z,102009.00
2023-03-27T04:04:30.929Z,102015.00
2023-03-27T04:06:58.306Z,102009.00
2023-03-27T04:09:25.221Z,102018.00
2023-03-27T04:11:51.930Z,102020.00
2023-03-27T04:14:18.540Z,102026.00
2023-03-27T04:16:45.167Z,102026.00
2023-03-27T04:19:11.802Z,102032.00
2023-03-27T04:21:38.953Z,102034.00
2023-03-27T04:24:07.357Z,102036.00
2023-03-27T04:26:35.484Z,102048.00
2023-03-27T04:29:02.409Z,102056.00
2023-03-27T04:31:30.432Z,102061.00
2023-03-27T04:33:57.043Z,102059.00
2023-03-27T04:36:24.509Z,102063.00
2023-03-27T04:38:51.231Z,102066.00
2023-03-27T04:41:17.880Z,102079.00
2023-03-27T04:43:46.121Z,102073.00
2023-03-27T04:46:12.847Z,102078.00
2023-03-27T04:48:39.561Z,102087.00
2023-03-27T04:51:09.449Z,102087.00
2023-03-27T04:53:37.828Z,102081.00
2023-03-27T04:56:06.199Z,102076.00
2023-03-27T04:58:35.973Z,102086.00
2023-03-27T05:01:05.704Z,102090.00
2023-03-27T05:03:34.848Z,102088.00
2023-03-27T05:06:04.089Z,102090.00
2023-03-27T05:08:31.115Z,102094.00
2023-03-27T05:10:57.997Z,102098.00
2023-03-27T05:13:24.841Z,102105.00
2023-03-27T05:15:51.554Z,102126.00
2023-03-27T05:18:18.115Z,102128.00
2023-03-27T05:20:48.883Z,102117.00
2023-03-27T05:23:16.442Z,102136.00
2023-03-27T05:25:45.356Z,102134.00
2023-03-27T05:28:27.047Z,102147.00
2023-03-27T05:30:53.795Z,102151.00
2023-03-27T05:33:20.809Z,102155.00
2023-03-27T05:35:50.134Z,102151.00
2023-03-27T05:38:16.978Z,102156.00
2023-03-27T05:40:43.630Z,102157.00
2023-03-27T05:43:10.418Z,102163.00
2023-03-27T05:45:37.311Z,102164.00
2023-03-27T05:48:04.192Z,102170.00
2023-03-27T05:50:33.895Z,102163.00
2023-03-27T05:53:08.085Z,102173.00
2023-03-27T05:55:34.816Z,102172.00
2023-03-27T05:58:01.768Z,102175.00
2023-03-27T06:00:32.002Z,102181.00
2023-03-27T06:03:00.967Z,102180.00
2023-03-27T06:05:29.919Z,102179.00
2023-03-27T06:07:59.918Z,102187.00
2023-03-27T06:10:28.363Z,102191.00
2023-03-27T06:13:06.449Z,102200.00
2023-03-27T06:15:33.823Z,102199.00
2023-03-27T06:18:00.520Z,102209.00
2023-03-27T06:20:27.682Z,102204.00
2023-03-27T06:22:57.013Z,102212.00
2023-03-27T06:25:26.004Z,102219.00
2023-03-27T06:27:53.691Z,102232.00
2023-03-27T06:30:26.001Z,102231.00
2023-03-27T06:32:54.842Z,102233.00
2023-03-27T06:35:21.990Z,102239.00
2023-03-27T06:37:51.267Z,102241.00
2023-03-27T06:40:24.229Z,102252.00
2023-03-27T06:43:08.606Z,102255.00
2023-03-27T06:45:38.648Z,102252.00
2023-03-27T06:48:17.923Z,102252.00
2023-03-27T06:50:48.556Z,102253.00
2023-03-27T06:53:26.471Z,102261.00
2023-03-27T06:55:54.612Z,102272.00
2023-03-27T06:58:21.851Z,102264.00
2023-03-27T07:00:49.803Z,102265.00
2023-03-27T07:03:18.106Z,102268.00
2023-03-27T07:05:45.549Z,102269.00
2023-03-27T07:10:56.275Z,102283.00
2023-03-27T07:13:32.774Z,102277.00
2023-03-27T07:15:59.472Z,102280.00
2023-03-27T07:18:26.067Z,102285.00
2023-03-27T07:20:52.686Z,102294.00
2023-03-27T07:23:19.309Z,102292.00
2023-03-27T07:25:45.942Z,102302.00
2023-03-27T07:28:16.640Z,102302.00
2023-03-27T07:30:43.226Z,102307.00
2023-03-27T07:33:10.648Z,102307.00
2023-03-27T07:35:45.425Z,102316.00
2023-03-27T07:38:12.356Z,102318.00
2023-03-27T07:40:40.594Z,102326.00
2023-03-27T07:43:07.784Z,102330.00
2023-03-27T07:45:38.938Z,102339.00
2023-03-27T07:48:16.264Z,102340.00
2023-03-27T07:50:43.571Z,102351.00
2023-03-27T07:53:10.144Z,102353.00
2023-03-27T07:55:59.156Z,102354.00
2023-03-27T07:58:26.165Z,102356.00
2023-03-27T08:00:52.930Z,102363.00
2023-03-27T08:03:21.067Z,102354.00
2023-03-27T08:05:59.060Z,102363.00
2023-03-27T08:08:26.692Z,102353.00
2023-03-27T08:10:57.641Z,102360.00
2023-03-27T08:13:24.522Z,102354.00
2023-03-27T08:15:51.489Z,102362.00
2023-03-27T08:18:18.143Z,102363.00
2023-03-27T08:20:45.627Z,102370.00
2023-03-27T08:23:12.349Z,102371.00
2023-03-27T08:25:38.965Z,102370.00
2023-03-27T08:28:05.557Z,102375.00
2023-03-27T08:30:32.502Z,102385.00
2023-03-27T08:33:00.444Z,102376.00
2023-03-27T08:35:27.199Z,102373.00
2023-03-27T08:37:54.086Z,102377.00
2023-03-27T08:40:26.129Z,102373.00
2023-03-27T08:42:57.306Z,102386.00
2023-03-27T08:45:41.445Z,102391.00
2023-03-27T08:48:22.192Z,102398.00
2023-03-27T08:50:56.378Z,102400.00
2023-03-27T08:53:46.256Z,102404.00
2023-03-27T08:56:17.227Z,102409.00
2023-03-27T08:58:45.428Z,102414.00
2023-03-27T09:01:18.034Z,102417.00
2023-03-27T09:04:05.487Z,102410.00
2023-03-27T09:06:39.582Z,102421.00
2023-03-27T09:09:10.028Z,102417.00
2023-03-27T09:11:54.975Z,102414.00
2023-03-27T09:14:51.159Z,102419.00
2023-03-27T09:17:25.984Z,102421.00
2023-03-27T09:20:18.536Z,102425.00
2023-03-27T09:22:51.152Z,102426.00
2023-03-27T09:25:28.980Z,102429.00
2023-03-27T09:27:56.267Z,102430.00
2023-03-27T09:30:31.578Z,102426.00
2023-03-27T09:33:03.587Z,102436.00
2023-03-27T09:35:30.503Z,102436.00
2023-03-27T09:38:04.021Z,102439.00
2023-03-27T09:40:46.019Z,102443.00
2023-03-27T09:43:18.643Z,102453.00
2023-03-27T09:45:49.872Z,102445.00
2023-03-27T09:48:28.272Z,102440.00
2023-03-27T09:50:55.120Z,102447.00
2023-03-27T09:53:23.490Z,102444.00
2023-03-27T09:55:58.828Z,102451.00
2023-03-27T09:58:31.352Z,102453.00
2023-03-27T10:01:16.291Z,102453.00
2023-03-27T10:03:55.552Z,102461.00
2023-03-27T10:06:31.686Z,102462.00
2023-03-27T10:09:07.056Z,102477.00
2023-03-27T10:11:35.658Z,102469.00
2023-03-27T10:14:13.432Z,102476.00
2023-03-27T10:16:41.884Z,102492.00
2023-03-27T10:19:21.026Z,102486.00
2023-03-27T10:21:47.865Z,102500.00
2023-03-27T10:24:17.504Z,102500.00
2023-03-27T10:26:46.902Z,102507.00
2023-03-27T10:29:28.815Z,102506.00
2023-03-27T10:31:57.897Z,102510.00
2023-03-27T10:34:32.455Z,102504.00
2023-03-27T10:37:01.598Z,102503.00
2023-03-27T10:39:32.950Z,102497.00
2023-03-27T10:42:06.545Z,102502.00
2023-03-27T10:44:37.648Z,102506.00
2023-03-27T10:47:06.359Z,102521.00
2023-03-27T10:49:47.079Z,102510.00
2023-03-27T10:52:18.532Z,102519.00
2023-03-27T10:55:07.449Z,102524.00
2023-03-27T10:57:34.561Z,102525.00
2023-03-27T11:00:21.209Z,102526.00
2023-03-27T11:02:57.621Z,102529.00
2023-03-27T11:05:30.274Z,102530.00
2023-03-27T11:08:24.031Z,102524.00
2023-03-27T11:10:51.045Z,102539.00
2023-03-27T11:13:38.499Z,102532.00
2023-03-27T11:16:33.401Z,102530.00
2023-03-27T11:19:31.212Z,102529.00
2023-03-27T11:22:25.272Z,102539.00
2023-03-27T11:25:00.794Z,102540.00
2023-03-27T11:27:56.744Z,102544.00
2023-03-27T11:30:44.687Z,102545.00
2023-03-27T11:33:33.032Z,102549.00
2023-03-27T11:36:11.764Z,102553.00
2023-03-27T11:38:45.678Z,102560.00
2023-03-27T11:41:15.339Z,102557.00
2023-03-27T11:43:42.372Z,102557.00
2023-03-27T11:46:28.501Z,102562.00
2023-03-27T11:49:18.619Z,102566.00
2023-03-27T11:52:01.828Z,102569.00
2023-03-27T11:54:42.440Z,102569.00
2023-03-27T11:57:25.825Z,102570.00
2023-03-27T12:00:16.296Z,102564.00
2023-03-27T12:03:11.936Z,102571.00
2023-03-27T12:05:59.155Z,102583.00
2023-03-27T12:08:45.462Z,102585.00
2023-03-27T12:11:12.801Z,102595.00
2023-03-27T12:13:55.043Z,102586.00
2023-03-27T12:16:56.281Z,102606.00
2023-03-27T12:19:41.792Z,102604.00
2023-03-27T12:22:29.793Z,102602.00
2023-03-27T12:25:08.513Z,102610.00
2023-03-27T12:27:55.203Z,102605.00
2023-03-27T12:30:47.482Z,102606.00
2023-03-27T12:33:35.463Z,102610.00
2023-03-27T12:36:06.152Z,102605.00
2023-03-27T12:38:42.127Z,102608.00
2023-03-27T12:41:09.282Z,102602.00
2023-03-27T12:43:39.916Z,102609.00
2023-03-27T12:46:19.187Z,102602.00
2023-03-27T12:49:01.206Z,102602.00
2023-03-27T12:51:51.082Z,102605.00
2023-03-27T12:54:34.830Z,102600.00
2023-03-27T12:57:05.994Z,102601.00
2023-03-27T12:59:39.581Z,102603.00
2023-03-27T13:02:16.990Z,102604.00
2023-03-27T13:05:00.252Z,102622.00
2023-03-27T13:07:41.616Z,102617.00
2023-03-27T13:10:19.172Z,102602.00
2023-03-27T13:12:57.936Z,102609.00
2023-03-27T13:15:55.407Z,102602.00
2023-03-27T13:18:31.773Z,102615.00
2023-03-27T13:21:22.414Z,102613.00
2023-03-27T13:23:54.932Z,102603.00
2023-03-27T13:26:56.896Z,102613.00
2023-03-27T13:29:27.124Z,102610.00
2023-03-27T13:31:58.667Z,102607.00
2023-03-27T13:34:41.556Z,102604.00
2023-03-27T13:37:11.288Z,102601.00
2023-03-27T13:39:56.399Z,102600.00
2023-03-27T13:42:34.427Z,102609.00
2023-03-27T13:45:09.521Z,102618.00
2023-03-27T13:47:57.806Z,102617.00
2023-03-27T13:51:01.715Z,102621.00
2023-03-27T13:54:01.510Z,102621.00
2023-03-27T13:56:51.129Z,102624.00
2023-03-27T13:59:21.065Z,102616.00
2023-03-27T14:01:59.804Z,102628.00
2023-03-27T14:04:45.917Z,102631.00
2023-03-27T14:07:31.054Z,102629.00
2023-03-27T14:10:24.616Z,102630.00
2023-03-27T14:13:12.486Z,102644.00
2023-03-27T14:15:41.974Z,102629.00
2023-03-27T14:18:36.715Z,102639.00
2023-03-27T14:21:10.486Z,102633.00
2023-03-27T14:24:08.801Z,102647.00
2023-03-27T14:26:38.012Z,102639.00
2023-03-27T14:29:05.050Z,102644.00
2023-03-27T14:31:38.722Z,102650.00
2023-03-27T14:34:22.450Z,102643.00
2023-03-27T14:36:52.013Z,102651.00
2023-03-27T14:39:23.684Z,102651.00
2023-03-27T14:41:55.679Z,102651.00
2023-03-27T14:44:24.125Z,102651.00
2023-03-27T14:47:00.986Z,102652.00
2023-03-27T14:49:35.998Z,102652.00
2023-03-27T14:52:06.215Z,102657.00
2023-03-27T14:54:41.689Z,102660.00
2023-03-27T14:57:15.703Z,102661.00
2023-03-27T14:59:44.076Z,102658.00
2023-03-27T15:02:23.686Z,102662.00
2023-03-27T15:04:50.271Z,102664.00
2023-03-27T15:07:19.742Z,102665.00
2023-03-27T15:09:59.277Z,102663.00
2023-03-27T15:12:25.953Z,102662.00
2023-03-27T15:14:53.881Z,102667.00
2023-03-27T15:17:20.792Z,102669.00
2023-03-27T15:19:51.028Z,102670.00
2023-03-27T15:22:31.470Z,102670.00
2023-03-27T15:25:03.774Z,102672.00
2023-03-27T15:27:38.259Z,102680.00
2023-03-27T15:30:18.000Z,102675.00
2023-03-27T15:32:50.290Z,102677.00
2023-03-27T15:35:21.713Z,102669.00
2023-03-27T15:37:48.599Z,102671.00
2023-03-27T15:40:26.786Z,102682.00
2023-03-27T15:43:01.054Z,102679.00
2023-03-27T15:45:40.318Z,102685.00
2023-03-27T15:48:20.513Z,102683.00
2023-03-27T15:51:01.625Z,102691.00
2023-03-27T15:53:31.216Z,102694.00
2023-03-27T15:56:00.568Z,102695.00
2023-03-27T15:58:31.473Z,102695.00
2023-03-27T16:01:01.551Z,102697.00
2023-03-27T16:03:32.847Z,102706.00
2023-03-27T16:06:00.666Z,102699.00
2023-03-27T16:08:37.378Z,102695.00
2023-03-27T16:11:06.342Z,102699.00
2023-03-27T16:13:41.940Z,102700.00
2023-03-27T16:16:30.734Z,102697.00
2023-03-27T16:19:03.229Z,102701.00
2023-03-27T16:21:33.756Z,102696.00
2023-03-27T16:24:00.338Z,102692.00
2023-03-27T16:26:31.701Z,102695.00
2023-03-27T16:29:01.846Z,102698.00
2023-03-27T16:31:28.491Z,102701.00
2023-03-27T16:33:55.320Z,102701.00
2023-03-27T16:36:30.061Z,102703.00
2023-03-27T16:38:57.029Z,102706.00
2023-03-27T16:41:23.882Z,102705.00
2023-03-27T16:43:50.560Z,102703.00
2023-03-27T16:46:26.074Z,102703.00
2023-03-27T16:48:53.925Z,102695.00
2023-03-27T16:51:22.868Z,102697.00
2023-03-27T16:53:49.547Z,102706.00
2023-03-27T16:56:16.527Z,102702.00
2023-03-27T16:58:43.218Z,102707.00
2023-03-27T17:01:10.010Z,102700.00
2023-03-27T17:03:39.864Z,102698.00
2023-03-27T17:06:09.569Z,102696.00
2023-03-27T17:08:37.019Z,102704.00
2023-03-27T17:11:13.372Z,102696.00
2023-03-27T17:13:43.408Z,102696.00
2023-03-27T17:16:10.396Z,102700.00
2023-03-27T17:18:37.060Z,102692.00
2023-03-27T17:21:03.832Z,102695.00
2023-03-27T17:23:31.579Z,102698.00
2023-03-27T17:26:02.449Z,102704.00
2023-03-27T17:28:30.367Z,102698.00
2023-03-27T17:31:04.688Z,102703.00
2023-03-27T17:33:32.668Z,102695.00
2023-03-27T17:35:59.448Z,102698.00
2023-03-27T17:38:26.514Z,102704.00
2023-03-27T17:40:53.109Z,102710.00
2023-03-27T17:43:19.945Z,102722.00
2023-03-27T17:45:47.931Z,102713.00
2023-03-27T17:48:14.516Z,102716.00
2023-03-27T17:50:41.132Z,102704.00
2023-03-27T17:53:07.990Z,102710.00
2023-03-27T17:55:37.161Z,102717.00
2023-03-27T17:58:09.341Z,102717.00
2023-03-27T18:00:37.605Z,102720.00
2023-03-27T18:03:04.761Z,102713.00
2023-03-27T18:05:36.518Z,102718.00
2023-03-27T18:08:03.374Z,102712.00
2023-03-27T18:10:30.154Z,102715.00
2023-03-27T18:12:57.310Z,102718.00
2023-03-27T18:15:24.429Z,102724.00
2023-03-27T18:17:51.208Z,102722.00
2023-03-27T18:20:17.889Z,102727.00
2023-03-27T18:22:44.537Z,102732.00
2023-03-27T18:25:11.603Z,102726.00
2023-03-27T18:27:43.365Z,102724.00
2023-03-27T18:30:13.713Z,102727.00
2023-03-27T18:32:42.698Z,102728.00
2023-03-27T18:35:15.734Z,102733.00
2023-03-27T18:37:43.668Z,102726.00
2023-03-27T18:40:12.357Z,102730.00
2023-03-27T18:42:40.443Z,102732.00
2023-03-27T18:45:08.551Z,102734.00
2023-03-27T18:47:36.507Z,102732.00
2023-03-27T18:50:05.227Z,102729.00
2023-03-27T18:52:32.153Z,102730.00
2023-03-27T18:54:58.985Z,102723.00
2023-03-27T18:57:25.803Z,102726.00
2023-03-27T18:59:52.521Z,102729.00
2023-03-27T19:02:19.259Z,102729.00
2023-03-27T19:04:48.068Z,102734.00
2023-03-27T19:07:16.405Z,102734.00
2023-03-27T19:09:43.219Z,102738.00
2023-03-27T19:12:11.105Z,102741.00
2023-03-27T19:14:37.985Z,102747.00
2023-03-27T19:17:05.003Z,102748.00
2023-03-27T19:19:32.090Z,102745.00
2023-03-27T19:21:58.898Z,102742.00
2023-03-27T19:24:25.555Z,102743.00
2023-03-27T19:26:52.994Z,102753.00
2023-03-27T19:29:20.387Z,102747.00
2023-03-27T19:31:47.101Z,102749.00
2023-03-27T19:34:14.024Z,102748.00
2023-03-27T19:36:40.644Z,102747.00
2023-03-27T19:39:07.330Z,102749.00
2023-03-27T19:41:33.965Z,102748.00
2023-03-27T19:44:00.836Z,102749.00
2023-03-27T19:46:28.582Z,102749.00
2023-03-27T19:48:55.906Z,102755.00
2023-03-27T19:51:23.001Z,102746.00
2023-03-27T19:53:49.634Z,102747.00
2023-03-27T19:56:16.253Z,102749.00
2023-03-27T19:58:42.905Z,102746.00
2023-03-27T20:01:10.012Z,102742.00
2023-03-27T20:03:38.519Z,102747.00
2023-03-27T20:06:13.338Z,102750.00
2023-03-27T20:08:40.951Z,102754.00
2023-03-27T20:11:07.895Z,102760.00
2023-03-27T20:13:42.333Z,102757.00
2023-03-27T20:16:14.932Z,102760.00
2023-03-27T20:18:42.809Z,102766.00
2023-03-27T20:21:13.656Z,102759.00
2023-03-27T20:23:41.993Z,102757.00
2023-03-27T20:26:09.341Z,102760.00
2023-03-27T20:28:36.827Z,102761.00
2023-03-27T20:31:05.427Z,102765.00
2023-03-27T20:33:32.261Z,102762.00
2023-03-27T20:35:59.069Z,102759.00
2023-03-27T20:38:29.651Z,102765.00
2023-03-27T20:40:56.475Z,102755.00
2023-03-27T20:43:23.443Z,102756.00
2023-03-27T20:45:52.035Z,102754.00
2023-03-27T20:48:21.911Z,102757.00
2023-03-27T20:50:55.436Z,102758.00
2023-03-27T20:53:31.099Z,102751.00
2023-03-27T20:56:02.488Z,102758.00
2023-03-27T20:58:31.866Z,102753.00
2023-03-27T21:00:58.990Z,102755.00
2023-03-27T21:03:25.677Z,102750.00
2023-03-27T21:05:52.286Z,102748.00
2023-03-27T21:08:18.908Z,102745.00
2023-03-27T21:10:53.135Z,102753.00
2023-03-27T21:13:20.284Z,102748.00
2023-03-27T21:15:47.181Z,102758.00
2023-03-27T21:18:13.772Z,102758.00
2023-03-27T21:20:40.352Z,102754.00
2023-03-27T21:23:06.946Z,102751.00
2023-03-27T21:25:34.810Z,102752.00
2023-03-27T21:28:01.649Z,102751.00
2023-03-27T21:30:46.341Z,102752.00
2023-03-27T21:33:16.045Z,102759.00
2023-03-27T21:35:45.809Z,102745.00
2023-03-27T21:38:13.719Z,102755.00
2023-03-27T21:40:40.893Z,102752.00
2023-03-27T21:43:08.979Z,102755.00
2023-03-27T21:45:36.176Z,102761.00
2023-03-27T21:48:03.078Z,102761.00
2023-03-27T21:50:29.884Z,102770.00
2023-03-27T21:52:56.602Z,102766.00
2023-03-27T21:55:23.226Z,102762.00
2023-03-27T21:57:49.900Z,102766.00
2023-03-27T22:00:16.679Z,102759.00
2023-03-27T22:02:43.304Z,102769.00
2023-03-27T22:05:10.103Z,102767.00
2023-03-27T22:07:36.754Z,102763.00
2023-03-27T22:10:06.245Z,102767.00
2023-03-27T22:12:36.865Z,102766.00
2023-03-27T22:15:04.730Z,102771.00
2023-03-27T22:17:31.531Z,102766.00
2023-03-27T22:19:59.182Z,102769.00
2023-03-27T22:22:26.617Z,102769.00
2023-03-27T22:24:53.164Z,102767.00
2023-03-27T22:27:19.888Z,102762.00
2023-03-27T22:29:46.609Z,102767.00
2023-03-27T22:32:13.303Z,102763.00
2023-03-27T22:34:39.883Z,102768.00
2023-03-27T22:37:06.882Z,102763.00
2023-03-27T22:39:33.694Z,102764.00
2023-03-27T22:42:00.323Z,102768.00
2023-03-27T22:44:30.184Z,102764.00
2023-03-27T22:46:57.505Z,102770.00
2023-03-27T22:49:24.043Z,102769.00
2023-03-27T22:51:50.812Z,102769.00
2023-03-27T22:54:18.650Z,102772.00
2023-03-27T22:56:47.057Z,102765.00
2023-03-27T22:59:14.784Z,102766.00
2023-03-27T23:01:41.357Z,102773.00
2023-03-27T23:04:08.035Z,102779.00
2023-03-27T23:06:34.651Z,102776.00
2023-03-27T23:09:01.301Z,102778.00
2023-03-27T23:11:27.893Z,102768.00
2023-03-27T23:13:54.505Z,102768.00
2023-03-27T23:16:21.092Z,102775.00
2023-03-27T23:18:47.663Z,102774.00
2023-03-27T23:21:16.802Z,102767.00
2023-03-27T23:23:44.058Z,102767.00
2023-03-27T23:26:11.522Z,102766.00
2023-03-27T23:28:40.260Z,102761.00
2023-03-27T23:31:15.719Z,102765.00
2023-03-27T23:33:47.462Z,102768.00
2023-03-27T23:36:15.505Z,102771.00
2023-03-27T23:38:42.685Z,102783.00
2023-03-27T23:41:10.914Z,102767.00
2023-03-27T23:43:37.811Z,102763.00
2023-03-27T23:46:08.725Z,102761.00
2023-03-27T23:48:35.437Z,102761.00
2023-03-27T23:51:02.480Z,102757.00
2023-03-27T23:53:30.035Z,102752.00
2023-03-27T23:55:58.740Z,102759.00
2023-03-27T23:58:28.861Z,102752.00
